Time;durP1;ratioP1;P1;durP2;ratioP2;P2;SDS_P1;SDS_P2;PMS_P1;PMS_P2;Temp;Humidity;BMP_temperature;BMP_pressure;BME280_temperature;BME280_humidity;BME280_pressure;Samples;Min_cycle;Max_cycle;Signal;HPM_P1;HPM_P2
2023/10/10 00:01:17;;;;;;;8.88;6.43;;;13.80;99.90;;;;;;5042661;28;20052;-86
2023/10/10 00:03:45;;;;;;;8.02;6.80;;;13.80;99.90;;;;;;5043095;28;20018;-85
2023/10/10 00:06:13;;;;;;;13.98;7.38;;;13.80;99.90;;;;;;5029913;28;20018;-84
2023/10/10 00:08:46;;;;;;;11.80;7.57;;;13.80;99.90;;;;;;5033913;28;20025;-86
2023/10/10 00:11:14;;;;;;;11.38;7.82;;;13.80;99.90;;;;;;5028167;28;20026;-85
2023/10/10 00:13:52;;;;;;;11.02;8.88;;;13.70;99.90;;;;;;5028655;28;20021;-87
2023/10/10 00:16:25;;;;;;;14.77;9.18;;;13.70;99.90;;;;;;5029593;28;20721;-85
2023/10/10 00:18:55;;;;;;;11.88;7.80;;;13.60;99.90;;;;;;5027946;28;20025;-86
2023/10/10 00:21:28;;;;;;;10.45;7.70;;;13.60;99.90;;;;;;5016510;28;20044;-85
2023/10/10 00:23:55;;;;;;;9.52;7.13;;;13.60;99.90;;;;;;5028555;28;20018;-84
2023/10/10 00:26:21;;;;;;;12.48;8.25;;;13.50;99.90;;;;;;5030304;28;20653;-85
2023/10/10 00:28:54;;;;;;;18.83;9.23;;;13.50;99.90;;;;;;5024581;28;20481;-85
2023/10/10 00:31:20;;;;;;;15.70;9.00;;;13.50;99.90;;;;;;5024079;28;20132;-86
2023/10/10 00:33:56;;;;;;;10.57;7.88;;;13.50;99.90;;;;;;5029264;28;20026;-85
2023/10/10 00:36:30;;;;;;;12.68;7.85;;;13.50;99.90;;;;;;5031568;28;20025;-85
2023/10/10 00:39:08;;;;;;;11.48;7.45;;;13.50;99.90;;;;;;5032696;28;20021;-85
2023/10/10 00:41:44;;;;;;;11.20;8.43;;;13.50;99.90;;;;;;5044553;28;20052;-84
2023/10/10 00:44:15;;;;;;;11.48;8.18;;;13.50;99.90;;;;;;5028619;28;20028;-86
2023/10/10 00:46:41;;;;;;;10.73;7.88;;;13.40;99.90;;;;;;5028428;28;20108;-85
2023/10/10 00:49:13;;;;;;;12.43;8.18;;;13.40;99.90;;;;;;5027746;28;20453;-85
2023/10/10 00:51:39;;;;;;;13.18;8.25;;;13.30;99.90;;;;;;5032193;28;20489;-86
2023/10/10 00:54:43;;;;;;;9.80;6.82;;;13.30;99.90;;;;;;5031255;28;20017;-85
2023/10/10 00:56:59;;;;;;;11.80;7.88;;;13.30;99.90;;;;;;5030636;28;20079;-86
2023/10/10 00:59:35;;;;;;;9.75;7.70;;;13.20;99.90;;;;;;5028888;28;20021;-85
2023/10/10 01:02:03;;;;;;;13.07;8.95;;;13.20;99.90;;;;;;5028848;28;20444;-84
2023/10/10 01:04:35;;;;;;;15.57;8.07;;;13.20;99.90;;;;;;5030913;28;20017;-85
2023/10/10 01:07:03;;;;;;;13.90;8.27;;;13.20;99.90;;;;;;5032415;28;20029;-85
2023/10/10 01:09:33;;;;;;;9.10;7.05;;;13.20;99.90;;;;;;5031710;28;20010;-86
2023/10/10 01:12:05;;;;;;;14.20;8.15;;;13.20;99.90;;;;;;5027768;28;20025;-85
2023/10/10 01:14:31;;;;;;;10.85;8.30;;;13.20;99.90;;;;;;5029684;28;20033;-85
2023/10/10 01:17:01;;;;;;;14.43;9.52;;;13.20;99.90;;;;;;5035110;28;20021;-85
2023/10/10 01:19:30;;;;;;;12.50;8.25;;;13.20;99.90;;;;;;5031081;28;20021;-85
2023/10/10 01:22:00;;;;;;;11.02;7.82;;;13.20;99.90;;;;;;5029307;28;20116;-84
2023/10/10 01:24:32;;;;;;;13.48;8.88;;;13.20;99.90;;;;;;5046958;28;20505;-86
2023/10/10 01:27:21;;;;;;;12.02;8.15;;;13.20;99.90;;;;;;5030409;28;20017;-85
2023/10/10 01:29:50;;;;;;;14.52;8.57;;;13.20;99.90;;;;;;5047439;28;20543;-84
2023/10/10 01:32:17;;;;;;;14.23;8.93;;;13.20;99.90;;;;;;5036073;28;20018;-85
2023/10/10 01:34:44;;;;;;;12.07;8.77;;;13.10;99.90;;;;;;5030706;28;20034;-84
2023/10/10 01:37:22;;;;;;;10.98;7.97;;;13.20;99.90;;;;;;5031906;28;20026;-85
2023/10/10 01:39:48;;;;;;;9.98;7.85;;;13.10;99.90;;;;;;5029528;28;20017;-85
2023/10/10 01:42:16;;;;;;;10.90;7.60;;;13.10;99.90;;;;;;5031594;28;20510;-84
2023/10/10 01:44:42;;;;;;;13.02;7.57;;;13.00;99.90;;;;;;5043811;28;20071;-85
2023/10/10 01:47:18;;;;;;;9.75;7.63;;;13.00;99.90;;;;;;5032340;28;20025;-85
2023/10/10 01:49:45;;;;;;;12.10;8.15;;;13.00;99.90;;;;;;5030117;28;20033;-85
2023/10/10 01:52:16;;;;;;;10.40;7.47;;;13.00;99.90;;;;;;5031602;28;20060;-83
2023/10/10 01:54:45;;;;;;;10.07;7.53;;;13.00;99.90;;;;;;5031870;28;20388;-86
2023/10/10 01:57:21;;;;;;;10.55;7.30;;;12.90;99.90;;;;;;5028729;28;20025;-84
2023/10/10 01:59:47;;;;;;;11.30;7.90;;;12.90;99.90;;;;;;5031903;28;20363;-85
2023/10/10 02:02:13;;;;;;;10.43;7.50;;;12.90;99.90;;;;;;5030550;28;20022;-87
2023/10/10 02:04:39;;;;;;;11.00;7.10;;;12.90;99.90;;;;;;5034872;28;20022;-85
2023/10/10 02:07:23;;;;;;;9.65;6.78;;;12.80;99.90;;;;;;5028241;28;20106;-85
2023/10/10 02:09:59;;;;;;;11.07;6.82;;;12.80;99.90;;;;;;5028829;28;20014;-84
2023/10/10 02:12:26;;;;;;;10.27;8.20;;;12.80;99.90;;;;;;5028470;28;20091;-85
2023/10/10 02:14:54;;;;;;;8.80;6.55;;;12.80;99.90;;;;;;5029628;28;20049;-85
2023/10/10 02:17:25;;;;;;;9.57;6.95;;;12.80;99.90;;;;;;5031105;28;20029;-85
2023/10/10 02:19:54;;;;;;;9.05;6.47;;;12.80;99.90;;;;;;5029371;28;20538;-85
2023/10/10 02:22:23;;;;;;;8.93;5.85;;;12.70;99.90;;;;;;5030648;28;20034;-85
2023/10/10 02:24:51;;;;;;;8.95;6.22;;;12.70;99.90;;;;;;5031333;28;20013;-85
2023/10/10 02:27:22;;;;;;;8.52;5.72;;;12.70;99.90;;;;;;5030974;28;20024;-85
2023/10/10 02:29:48;;;;;;;7.53;5.78;;;12.70;99.90;;;;;;5031626;28;20575;-85
2023/10/10 02:32:21;;;;;;;8.38;6.05;;;12.70;99.90;;;;;;5030475;28;20027;-85
2023/10/10 02:35:10;;;;;;;10.43;6.70;;;12.60;99.90;;;;;;5029861;28;20021;-86
2023/10/10 02:37:41;;;;;;;9.88;6.88;;;12.60;99.90;;;;;;5028146;28;20021;-84
2023/10/10 02:40:15;;;;;;;7.65;5.80;;;12.60;99.90;;;;;;5031172;28;20026;-85
2023/10/10 02:42:50;;;;;;;9.30;6.22;;;12.60;99.90;;;;;;5027821;28;20036;-86
2023/10/10 02:45:17;;;;;;;7.40;5.63;;;12.50;99.90;;;;;;5032010;28;20030;-85
2023/10/10 02:47:46;;;;;;;7.78;6.45;;;12.50;99.90;;;;;;5031698;28;20025;-85
2023/10/10 02:50:39;;;;;;;10.13;6.95;;;12.50;99.90;;;;;;5031643;28;20026;-84
2023/10/10 02:53:03;;;;;;;9.32;6.78;;;12.50;99.90;;;;;;5032041;28;20043;-85
2023/10/10 02:55:33;;;;;;;11.18;7.22;;;12.50;99.90;;;;;;5033521;28;20079;-85
2023/10/10 02:57:59;;;;;;;11.10;7.32;;;12.40;99.90;;;;;;5031491;28;20024;-85
2023/10/10 03:02:53;;;;;;;9.88;6.63;;;12.40;99.90;;;;;;5036079;28;20038;-85
2023/10/10 03:05:39;;;;;;;7.30;5.50;;;12.40;99.90;;;;;;5026201;28;20029;-85
2023/10/10 03:11:00;;;;;;;9.05;5.82;;;12.40;99.90;;;;;;5031178;28;20074;-84
2023/10/10 03:14:13;;;;;;;6.65;5.13;;;12.30;99.90;;;;;;5045776;28;20052;-87
2023/10/10 03:17:03;;;;;;;9.88;7.07;;;12.30;99.90;;;;;;5049862;28;20041;-89
2023/10/10 03:21:43;;;;;;;8.52;7.07;;;12.40;99.90;;;;;;5041320;28;20037;-85
2023/10/10 03:27:00;;;;;;;9.95;7.80;;;12.30;99.90;;;;;;5037803;28;20032;-85
2023/10/10 03:29:46;;;;;;;10.25;7.75;;;12.30;99.90;;;;;;5036237;28;20294;-86
2023/10/10 03:32:25;;;;;;;11.95;8.57;;;12.30;99.90;;;;;;5033744;28;20021;-86
2023/10/10 03:34:57;;;;;;;9.40;7.80;;;12.30;99.90;;;;;;5034270;28;20064;-85
2023/10/10 03:39:57;;;;;;;8.20;6.85;;;12.30;99.90;;;;;;5034758;28;20032;-86
2023/10/10 05:23:50;;;;;;;11.23;9.05;;;12.10;99.90;;;;;;5032880;28;20052;-85
2023/10/10 05:26:19;;;;;;;14.10;9.32;;;12.10;99.90;;;;;;5033422;28;20600;-85
2023/10/10 05:28:46;;;;;;;13.48;9.77;;;12.10;99.90;;;;;;5029698;28;20026;-84
2023/10/10 05:31:17;;;;;;;10.90;8.63;;;12.10;99.90;;;;;;5030131;28;20026;-84
2023/10/10 05:33:43;;;;;;;14.43;9.68;;;12.10;99.90;;;;;;5031449;28;20028;-84
2023/10/10 05:36:09;;;;;;;12.70;9.25;;;12.10;99.90;;;;;;5033904;28;20025;-84
2023/10/10 05:38:39;;;;;;;15.45;10.07;;;12.10;99.90;;;;;;5031709;28;20040;-85
2023/10/10 05:41:10;;;;;;;14.00;9.63;;;12.10;99.90;;;;;;5032396;28;20086;-85
2023/10/10 05:43:36;;;;;;;14.45;10.27;;;12.10;99.90;;;;;;5032743;28;20482;-84
2023/10/10 05:46:05;;;;;;;12.35;9.32;;;12.10;99.90;;;;;;5036076;28;20075;-84
2023/10/10 05:48:35;;;;;;;17.35;10.60;;;12.10;99.90;;;;;;5032148;28;20509;-85
2023/10/10 05:51:03;;;;;;;15.02;10.93;;;12.10;99.90;;;;;;5029893;28;20040;-85
2023/10/10 05:53:32;;;;;;;14.93;9.40;;;12.10;99.90;;;;;;5032150;28;20021;-85
2023/10/10 05:55:59;;;;;;;14.55;9.45;;;12.10;99.90;;;;;;5032074;28;20075;-84
2023/10/10 05:58:26;;;;;;;14.90;9.73;;;12.10;99.90;;;;;;5028856;28;20635;-85
2023/10/10 06:00:53;;;;;;;15.70;10.95;;;12.10;99.90;;;;;;5030456;28;20013;-85
2023/10/10 06:03:19;;;;;;;15.35;10.25;;;12.10;99.90;;;;;;5038706;28;20032;-86
2023/10/10 06:05:44;;;;;;;16.35;10.10;;;12.10;99.90;;;;;;5036647;28;20016;-84
2023/10/10 06:08:11;;;;;;;15.50;9.90;;;12.10;99.90;;;;;;5027195;28;20033;-85
2023/10/10 06:10:37;;;;;;;13.77;9.57;;;12.10;99.90;;;;;;5024420;28;20036;-85
2023/10/10 06:13:06;;;;;;;13.93;8.95;;;12.20;99.90;;;;;;5033565;28;20025;-85
2023/10/10 06:15:33;;;;;;;16.50;11.43;;;12.20;99.90;;;;;;5033013;28;20064;-85
2023/10/10 06:18:12;;;;;;;13.93;10.48;;;12.20;99.90;;;;;;5028565;28;20395;-85
2023/10/10 06:20:42;;;;;;;14.02;9.27;;;12.20;99.90;;;;;;5029834;28;20025;-85
2023/10/10 06:23:16;;;;;;;15.93;10.60;;;12.20;99.90;;;;;;5025352;28;20110;-85
2023/10/10 06:25:43;;;;;;;17.17;11.82;;;12.20;99.90;;;;;;5028570;28;20029;-85
2023/10/10 06:28:26;;;;;;;15.45;11.02;;;12.20;99.90;;;;;;5034049;28;20021;-85
2023/10/10 06:30:55;;;;;;;18.50;11.02;;;12.20;99.90;;;;;;5032653;28;20013;-86
2023/10/10 06:33:27;;;;;;;16.48;10.95;;;12.20;99.90;;;;;;5034985;28;20028;-85
2023/10/10 06:36:01;;;;;;;18.17;11.13;;;12.20;99.90;;;;;;5028166;28;20025;-85
2023/10/10 06:38:26;;;;;;;18.67;11.00;;;12.20;99.90;;;;;;5028988;28;20021;-86
2023/10/10 06:40:53;;;;;;;19.85;11.38;;;12.20;99.90;;;;;;5032421;28;20005;-85
2023/10/10 06:43:22;;;;;;;18.42;11.00;;;12.30;99.90;;;;;;5030244;28;20022;-84
2023/10/10 06:45:54;;;;;;;16.50;10.93;;;12.30;99.90;;;;;;5024639;28;20022;-85
2023/10/10 06:48:21;;;;;;;20.88;11.68;;;12.30;99.90;;;;;;5033710;28;20040;-85
2023/10/10 06:50:49;;;;;;;20.50;12.45;;;12.30;99.90;;;;;;5030640;28;20109;-85
2023/10/10 06:53:28;;;;;;;20.75;12.32;;;12.30;99.90;;;;;;5033335;28;20025;-85
2023/10/10 06:55:54;;;;;;;20.23;11.40;;;12.30;99.90;;;;;;5032703;28;20017;-84
2023/10/10 06:58:20;;;;;;;23.88;13.05;;;12.30;99.90;;;;;;5036059;28;20591;-83
2023/10/10 07:00:46;;;;;;;27.48;13.70;;;12.40;99.90;;;;;;5029778;28;20041;-85
2023/10/10 07:03:19;;;;;;;25.83;14.48;;;12.40;99.90;;;;;;5031816;28;20025;-86
2023/10/10 07:05:45;;;;;;;21.42;12.73;;;12.40;99.90;;;;;;5032142;28;20056;-85
2023/10/10 07:08:19;;;;;;;29.10;13.82;;;12.40;99.90;;;;;;5027268;28;20033;-85
2023/10/10 07:10:45;;;;;;;28.95;15.77;;;12.40;99.90;;;;;;5030913;28;20342;-85
2023/10/10 07:13:14;;;;;;;24.58;13.38;;;12.50;99.90;;;;;;5031113;28;20060;-85
2023/10/10 07:15:41;;;;;;;28.60;15.80;;;12.50;99.90;;;;;;5029626;28;20041;-84
2023/10/10 07:18:25;;;;;;;27.42;14.57;;;12.50;99.90;;;;;;5029635;28;20076;-85
2023/10/10 07:21:08;;;;;;;33.75;15.65;;;12.50;99.90;;;;;;5028277;28;20032;-82
2023/10/10 07:23:37;;;;;;;23.52;13.13;;;12.50;99.90;;;;;;5029146;28;20061;-85
2023/10/10 07:26:20;;;;;;;26.48;13.85;;;12.50;99.90;;;;;;5032176;28;20052;-85
2023/10/10 07:28:48;;;;;;;25.67;13.45;;;12.60;99.90;;;;;;5029302;28;20018;-85
2023/10/10 07:31:18;;;;;;;24.63;13.05;;;12.60;99.90;;;;;;5039755;28;20056;-87
2023/10/10 07:34:03;;;;;;;27.83;14.85;;;12.60;99.90;;;;;;5034011;28;20017;-85
2023/10/10 07:36:29;;;;;;;30.35;14.00;;;12.60;99.90;;;;;;5040719;28;20018;-84
2023/10/10 07:39:32;;;;;;;39.80;16.50;;;12.70;99.90;;;;;;5034265;28;20025;-84
2023/10/10 07:41:45;;;;;;;30.52;13.82;;;12.70;99.90;;;;;;5034590;28;20504;-87
2023/10/10 07:44:11;;;;;;;29.92;14.50;;;12.70;99.90;;;;;;5028688;28;20037;-85
2023/10/10 07:46:37;;;;;;;26.00;13.93;;;12.80;99.90;;;;;;5031884;28;20393;-85
2023/10/10 07:49:03;;;;;;;26.85;14.07;;;12.80;99.90;;;;;;5033860;28;20029;-85
2023/10/10 07:51:29;;;;;;;28.77;15.13;;;12.80;99.90;;;;;;5033341;28;20025;-87
2023/10/10 07:54:13;;;;;;;28.27;14.23;;;12.80;99.90;;;;;;5033452;28;20093;-85
2023/10/10 07:56:45;;;;;;;26.95;13.30;;;12.80;99.90;;;;;;5026384;28;20063;-85
2023/10/10 07:59:21;;;;;;;30.05;14.20;;;12.90;99.90;;;;;;5031083;28;20041;-86
2023/10/10 08:01:47;;;;;;;25.33;12.73;;;12.90;99.90;;;;;;5029401;28;20026;-85
2023/10/10 08:04:14;;;;;;;23.10;12.38;;;12.90;99.90;;;;;;5028041;28;20016;-87
2023/10/10 08:06:44;;;;;;;20.85;12.38;;;12.90;99.90;;;;;;5028092;28;20022;-85
2023/10/10 08:11:44;;;;;;;26.52;13.55;;;13.00;99.90;;;;;;5031827;28;20026;-86
2023/10/10 08:14:09;;;;;;;22.08;12.05;;;13.00;99.90;;;;;;5028595;28;20075;-86
2023/10/10 08:16:37;;;;;;;27.73;13.40;;;13.10;99.90;;;;;;5023817;28;20025;-87
2023/10/10 08:19:08;;;;;;;27.35;14.15;;;13.10;99.90;;;;;;5030407;28;20030;-85
2023/10/10 08:21:38;;;;;;;22.02;11.13;;;13.10;99.90;;;;;;5029623;28;20029;-85
2023/10/10 08:24:08;;;;;;;29.67;13.52;;;13.20;99.90;;;;;;5028551;28;20032;-85
2023/10/10 08:26:41;;;;;;;27.95;14.18;;;13.20;99.90;;;;;;5028527;28;20021;-87
2023/10/10 08:29:11;;;;;;;26.27;12.38;;;13.20;99.90;;;;;;5027956;28;20573;-85
2023/10/10 08:31:39;;;;;;;19.45;11.35;;;13.30;99.90;;;;;;5027980;28;20029;-85
2023/10/10 08:34:06;;;;;;;26.20;12.43;;;13.40;99.90;;;;;;5028397;28;20192;-84
2023/10/10 08:36:32;;;;;;;21.67;9.68;;;13.40;99.90;;;;;;5028857;28;20025;-85
2023/10/10 08:39:25;;;;;;;27.38;13.02;;;13.50;99.90;;;;;;5029674;28;20031;-85
2023/10/10 08:41:52;;;;;;;16.73;9.32;;;13.50;99.90;;;;;;5028219;28;20480;-86
2023/10/10 08:44:19;;;;;;;19.05;10.15;;;13.60;99.90;;;;;;5027718;28;20025;-85
2023/10/10 08:46:46;;;;;;;16.52;9.57;;;13.70;99.90;;;;;;5025132;28;20161;-86
2023/10/10 08:49:15;;;;;;;14.95;8.52;;;13.70;99.90;;;;;;5028351;28;20126;-85
2023/10/10 08:51:42;;;;;;;13.77;8.27;;;13.70;99.90;;;;;;5028190;28;20037;-86
2023/10/10 08:54:12;;;;;;;14.13;8.45;;;13.80;99.90;;;;;;5029622;28;20468;-85
2023/10/10 08:56:43;;;;;;;12.32;7.82;;;13.80;99.90;;;;;;5031641;28;20474;-88
2023/10/10 08:59:11;;;;;;;13.88;7.88;;;13.90;99.90;;;;;;5026131;28;20057;-86
2023/10/10 09:01:36;;;;;;;12.70;8.00;;;13.90;99.90;;;;;;5031054;28;20099;-85
2023/10/10 09:04:03;;;;;;;14.57;7.55;;;14.00;99.90;;;;;;5030075;28;20461;-85
2023/10/10 09:06:45;;;;;;;12.13;7.55;;;14.00;99.90;;;;;;5045111;28;20075;-85
2023/10/10 09:11:56;;;;;;;9.57;6.75;;;14.10;99.90;;;;;;5033802;28;20040;-85
2023/10/10 09:14:36;;;;;;;9.82;6.60;;;14.10;99.90;;;;;;5032346;28;20021;-85
2023/10/10 09:17:06;;;;;;;17.77;8.57;;;14.20;99.90;;;;;;5030992;28;20013;-85
2023/10/10 09:19:32;;;;;;;12.48;7.85;;;14.20;99.90;;;;;;5028472;28;20029;-84
2023/10/10 09:22:01;;;;;;;11.80;7.30;;;14.30;99.90;;;;;;5031202;28;20025;-84
2023/10/10 09:24:28;;;;;;;8.57;7.18;;;14.30;99.90;;;;;;5032061;28;20044;-85
2023/10/10 09:27:10;;;;;;;11.27;7.60;;;14.40;99.90;;;;;;5033239;28;20103;-84
2023/10/10 09:29:45;;;;;;;8.43;6.47;;;14.40;99.90;;;;;;5050075;28;20086;-87
2023/10/10 09:32:15;;;;;;;9.18;6.45;;;14.50;99.90;;;;;;5028461;28;20017;-84
2023/10/10 09:34:41;;;;;;;9.13;7.03;;;14.60;99.90;;;;;;5032330;28;20704;-85
2023/10/10 09:37:17;;;;;;;9.02;6.82;;;14.60;99.90;;;;;;5031213;28;20100;-84
2023/10/10 09:39:54;;;;;;;10.90;6.93;;;14.70;99.90;;;;;;5028644;28;20027;-86
2023/10/10 09:45:18;;;;;;;7.88;6.40;;;14.80;99.90;;;;;;5017391;28;20022;-86
2023/10/10 09:48:05;;;;;;;10.82;7.97;;;14.80;99.90;;;;;;5028613;28;20105;-85
2023/10/10 09:50:45;;;;;;;11.20;8.57;;;14.80;99.90;;;;;;5032497;28;20044;-84
2023/10/10 09:53:21;;;;;;;10.57;7.35;;;14.90;99.90;;;;;;5032933;28;20017;-85
2023/10/10 09:55:48;;;;;;;12.75;7.28;;;15.00;99.90;;;;;;5036072;28;20561;-84
2023/10/10 10:09:20;;;;;;;6.75;4.88;;;15.20;99.90;;;;;;5034721;28;20049;-84
2023/10/10 10:12:04;;;;;;;7.03;4.00;;;15.30;99.90;;;;;;5028510;28;20013;-85
2023/10/10 10:14:53;;;;;;;6.22;4.53;;;15.30;99.90;;;;;;5049081;28;20156;-85
2023/10/10 10:17:48;;;;;;;7.80;4.63;;;15.40;99.90;;;;;;5029057;28;20021;-85
2023/10/10 10:20:33;;;;;;;6.10;4.15;;;15.50;99.90;;;;;;5029671;28;20032;-85
2023/10/10 10:23:00;;;;;;;8.77;5.00;;;15.60;99.90;;;;;;5040600;28;20014;-86
2023/10/10 10:25:31;;;;;;;6.88;4.50;;;15.60;99.90;;;;;;5032987;28;20469;-84
2023/10/10 10:28:00;;;;;;;4.70;3.97;;;15.60;99.90;;;;;;5030447;28;20037;-84
2023/10/10 10:32:58;;;;;;;6.90;3.97;;;15.70;99.90;;;;;;5036156;28;20107;-84
2023/10/10 10:35:44;;;;;;;5.15;3.78;;;15.70;99.90;;;;;;5046229;28;20036;-87
2023/10/10 10:38:09;;;;;;;4.03;3.60;;;15.80;99.90;;;;;;5040205;28;20485;-84
2023/10/10 10:43:16;;;;;;;4.00;3.42;;;15.90;99.90;;;;;;5029383;28;20018;-86
2023/10/10 10:45:51;;;;;;;3.58;3.25;;;16.00;99.90;;;;;;5028177;28;20021;-86
2023/10/10 10:48:29;;;;;;;9.32;3.50;;;16.00;99.90;;;;;;5030129;28;21007;-83
2023/10/10 10:51:06;;;;;;;4.20;3.17;;;16.00;99.90;;;;;;5027654;28;20021;-83
2023/10/10 10:53:38;;;;;;;4.93;2.97;;;16.10;99.90;;;;;;5043733;28;20018;-84
2023/10/10 10:56:47;;;;;;;3.22;2.53;;;16.00;99.90;;;;;;5030154;28;20040;-84
2023/10/10 10:59:19;;;;;;;3.20;2.60;;;16.10;99.90;;;;;;5030424;28;20508;-83
2023/10/10 11:01:57;;;;;;;3.28;2.95;;;16.20;99.90;;;;;;5027755;28;20032;-84
2023/10/10 11:04:45;;;;;;;4.53;3.08;;;16.20;99.90;;;;;;5027585;28;20018;-86
2023/10/10 11:07:41;;;;;;;3.55;3.25;;;16.30;99.90;;;;;;5029606;28;20041;-83
2023/10/10 11:10:06;;;;;;;4.40;3.95;;;16.40;99.90;;;;;;5029222;28;20093;-85
2023/10/10 11:12:33;;;;;;;5.20;3.60;;;16.40;99.90;;;;;;5029335;28;20029;-84
2023/10/10 11:15:05;;;;;;;3.53;2.47;;;16.40;99.90;;;;;;5029577;28;20033;-83
2023/10/10 11:17:37;;;;;;;3.40;2.38;;;16.50;99.90;;;;;;5025821;28;20556;-84
2023/10/10 11:20:25;;;;;;;2.33;2.13;;;16.50;99.90;;;;;;5028922;28;20025;-86
2023/10/10 11:22:54;;;;;;;3.30;2.22;;;16.50;99.90;;;;;;5028198;28;20021;-84
2023/10/10 11:25:41;;;;;;;3.70;1.73;;;16.50;99.90;;;;;;5028451;28;20063;-84
2023/10/10 11:28:05;;;;;;;4.07;2.35;;;16.60;99.90;;;;;;5031040;28;20025;-85
2023/10/10 11:30:33;;;;;;;3.13;2.45;;;16.50;99.90;;;;;;5028198;28;20032;-85
2023/10/10 11:33:17;;;;;;;4.50;2.25;;;16.50;99.90;;;;;;5030768;28;20021;-83
2023/10/10 11:35:50;;;;;;;4.95;2.17;;;16.60;99.90;;;;;;5030417;28;20029;-83
2023/10/10 11:38:28;;;;;;;7.00;2.20;;;16.60;99.90;;;;;;5029577;28;20037;-83
2023/10/10 11:40:53;;;;;;;2.50;2.30;;;16.70;99.90;;;;;;5028195;28;20075;-85
2023/10/10 11:43:22;;;;;;;5.05;2.97;;;16.70;99.90;;;;;;5029357;28;20428;-84
2023/10/10 11:45:51;;;;;;;4.10;2.90;;;16.80;99.90;;;;;;5028611;28;20156;-84
2023/10/10 11:48:17;;;;;;;6.10;2.78;;;16.80;99.90;;;;;;5028826;28;20013;-84
2023/10/10 11:50:53;;;;;;;3.40;2.53;;;16.70;99.90;;;;;;5028529;28;20025;-83
2023/10/10 11:53:19;;;;;;;;;;;16.80;99.90;;;;;;5029978;28;20025;-83
2023/10/10 11:55:46;;;;;;;3.22;2.92;;;16.80;99.90;;;;;;5027188;28;19915;-85
2023/10/10 11:58:17;;;;;;;3.25;2.85;;;16.80;99.90;;;;;;5029437;28;20056;-84
2023/10/10 12:00:59;;;;;;;5.47;3.30;;;16.80;99.90;;;;;;5029826;28;20021;-84
2023/10/10 12:06:00;;;;;;;4.03;3.17;;;16.90;99.90;;;;;;5027999;28;20068;-83
2023/10/10 12:08:26;;;;;;;4.93;3.58;;;16.90;99.90;;;;;;5047020;28;20033;-85
2023/10/10 12:10:53;;;;;;;4.63;3.03;;;16.90;99.90;;;;;;5030028;28;20049;-84
2023/10/10 12:13:44;;;;;;;7.65;3.90;;;16.90;99.90;;;;;;5029276;28;20112;-83
2023/10/10 12:16:13;;;;;;;7.55;3.53;;;16.90;99.90;;;;;;5026789;28;20033;-85
2023/10/10 12:18:44;;;;;;;3.65;3.17;;;17.00;99.90;;;;;;5029656;28;20026;-83
2023/10/10 12:21:14;;;;;;;7.50;3.50;;;17.00;99.90;;;;;;5027377;28;20017;-83
2023/10/10 12:23:40;;;;;;;4.22;3.58;;;17.00;99.90;;;;;;5031060;28;20849;-84
2023/10/10 12:26:08;;;;;;;3.35;2.53;;;17.00;99.90;;;;;;5034144;28;20381;-83
2023/10/10 12:28:34;;;;;;;3.90;3.33;;;17.00;99.90;;;;;;5036140;28;20014;-83
2023/10/10 12:31:03;;;;;;;3.55;2.70;;;16.90;99.90;;;;;;5033845;28;20048;-83
2023/10/10 12:33:29;;;;;;;4.45;2.85;;;16.90;99.90;;;;;;5033534;28;20027;-84
2023/10/10 12:35:56;;;;;;;4.63;2.50;;;16.90;99.90;;;;;;5033897;28;20017;-82
2023/10/10 12:38:23;;;;;;;3.33;2.42;;;16.90;99.90;;;;;;5033180;28;20032;-83
2023/10/10 12:40:50;;;;;;;2.63;2.42;;;17.00;99.90;;;;;;5033252;28;20134;-83
2023/10/10 12:43:16;;;;;;;3.83;2.05;;;17.00;99.90;;;;;;5035035;28;20053;-84
2023/10/10 12:45:42;;;;;;;3.15;2.22;;;17.10;99.90;;;;;;5053008;28;20027;-83
2023/10/10 12:48:14;;;;;;;2.67;2.40;;;17.10;99.90;;;;;;5033666;28;20081;-84
2023/10/10 12:50:44;;;;;;;2.88;2.08;;;17.10;99.90;;;;;;5032610;28;20103;-83
2023/10/10 12:53:15;;;;;;;2.40;2.20;;;17.20;99.90;;;;;;5032151;28;20080;-84
2023/10/10 12:55:52;;;;;;;3.08;2.03;;;17.10;99.90;;;;;;5033678;28;20707;-84
2023/10/10 12:58:20;;;;;;;3.72;2.50;;;17.10;99.90;;;;;;5033499;28;20079;-83
2023/10/10 13:00:53;;;;;;;2.72;2.25;;;17.20;99.90;;;;;;5031976;28;20021;-82
2023/10/10 13:03:23;;;;;;;3.58;2.83;;;17.20;99.90;;;;;;5032407;28;20029;-83
2023/10/10 13:05:52;;;;;;;3.88;2.60;;;17.30;99.90;;;;;;5029023;28;20021;-84
2023/10/10 13:08:20;;;;;;;4.55;2.65;;;17.30;99.90;;;;;;5032663;28;20029;-83
2023/10/10 13:10:54;;;;;;;2.90;2.08;;;17.40;99.90;;;;;;5030259;28;20021;-86
2023/10/10 13:13:27;;;;;;;2.65;2.45;;;17.40;99.90;;;;;;5034059;28;20049;-85
2023/10/10 13:16:22;;;;;;;3.35;3.05;;;17.40;99.90;;;;;;5044967;28;20367;-84
2023/10/10 13:18:48;;;;;;;3.13;2.83;;;17.40;99.90;;;;;;5033652;28;20470;-86
2023/10/10 13:21:15;;;;;;;3.00;2.70;;;17.40;99.90;;;;;;5034214;28;20120;-83
2023/10/10 13:23:43;;;;;;;3.65;2.40;;;17.40;99.90;;;;;;5034434;28;20018;-83
2023/10/10 13:26:09;;;;;;;3.38;2.33;;;17.40;99.90;;;;;;5034725;28;20120;-83
2023/10/10 13:28:36;;;;;;;3.33;2.40;;;17.40;99.90;;;;;;5034567;28;20620;-85
2023/10/10 13:31:02;;;;;;;5.03;3.17;;;17.40;99.90;;;;;;5036045;28;20072;-84
2023/10/10 13:33:28;;;;;;;2.83;2.53;;;17.40;99.90;;;;;;5033562;28;20032;-84
2023/10/10 13:35:53;;;;;;;3.13;2.83;;;17.40;99.90;;;;;;5035624;28;20021;-84
2023/10/10 13:38:19;;;;;;;4.95;3.08;;;17.40;99.90;;;;;;5030454;28;20044;-82
2023/10/10 13:40:45;;;;;;;6.35;2.97;;;17.40;99.90;;;;;;5030122;28;20017;-84
2023/10/10 13:43:16;;;;;;;3.50;3.20;;;17.30;99.90;;;;;;5039599;28;20518;-84
2023/10/10 13:45:51;;;;;;;3.40;3.10;;;17.30;99.90;;;;;;5035079;28;20045;-83
2023/10/10 13:48:23;;;;;;;4.22;3.13;;;17.30;99.90;;;;;;5039498;28;20014;-83
2023/10/10 13:50:51;;;;;;;4.20;3.67;;;17.30;99.90;;;;;;5035231;28;20014;-83
2023/10/10 13:53:17;;;;;;;7.28;4.35;;;17.30;99.90;;;;;;5039544;28;20036;-84
2023/10/10 13:55:46;;;;;;;6.30;4.40;;;17.30;99.90;;;;;;5035550;28;20561;-85
2023/10/10 13:58:13;;;;;;;6.88;4.30;;;17.30;99.90;;;;;;5036104;28;20032;-83
2023/10/10 14:00:41;;;;;;;5.45;4.35;;;17.30;99.90;;;;;;5035033;28;20026;-84
2023/10/10 14:03:07;;;;;;;6.03;4.50;;;17.30;99.90;;;;;;5033829;28;20021;-85
2023/10/10 14:05:39;;;;;;;6.07;4.45;;;17.30;99.90;;;;;;5032233;28;20092;-85
2023/10/10 14:08:17;;;;;;;5.28;4.65;;;17.30;99.90;;;;;;5036724;28;20060;-83
2023/10/10 14:10:43;;;;;;;5.07;4.53;;;17.20;99.90;;;;;;5036399;28;20376;-83
2023/10/10 14:13:21;;;;;;;7.57;5.45;;;17.20;99.90;;;;;;5036195;28;20060;-83
2023/10/10 14:15:54;;;;;;;5.78;4.38;;;17.20;99.90;;;;;;5032225;28;20037;-84
2023/10/10 14:18:31;;;;;;;7.57;4.75;;;17.20;99.90;;;;;;5034374;28;20022;-82
2023/10/10 14:21:07;;;;;;;9.13;4.30;;;17.30;99.90;;;;;;5034732;28;20105;-83
2023/10/10 14:23:35;;;;;;;;;;;17.30;99.90;;;;;;5035254;28;20139;-83
2023/10/10 14:26:16;;;;;;;7.70;4.55;;;17.30;99.90;;;;;;5033909;28;19936;-84
2023/10/10 14:28:53;;;;;;;6.25;4.45;;;17.30;99.90;;;;;;5034245;28;20021;-83
2023/10/10 14:31:31;;;;;;;11.77;5.00;;;17.30;99.90;;;;;;5036362;28;20373;-83
2023/10/10 14:34:00;;;;;;;6.05;4.47;;;17.30;99.90;;;;;;5030267;28;20021;-84
2023/10/10 14:36:30;;;;;;;7.25;5.03;;;17.20;99.90;;;;;;5029869;28;20469;-83
2023/10/10 14:38:57;;;;;;;9.82;5.68;;;17.20;99.90;;;;;;5032069;28;20052;-83
2023/10/10 14:41:24;;;;;;;5.93;5.28;;;17.20;99.90;;;;;;5030390;28;20014;-84
2023/10/10 14:43:52;;;;;;;7.93;5.90;;;17.20;99.90;;;;;;5032168;28;20081;-83
2023/10/10 14:46:27;;;;;;;6.07;5.32;;;17.20;99.90;;;;;;5032711;28;20683;-84
2023/10/10 14:49:00;;;;;;;7.45;5.18;;;17.20;99.90;;;;;;5046762;28;20160;-83
2023/10/10 14:51:36;;;;;;;7.88;6.20;;;17.20;99.90;;;;;;5031867;28;20068;-84
2023/10/10 14:54:12;;;;;;;7.35;6.32;;;17.20;99.90;;;;;;5032262;28;20059;-84
2023/10/10 14:56:50;;;;;;;7.78;5.80;;;17.10;99.90;;;;;;5032744;28;20048;-83
2023/10/10 14:59:18;;;;;;;6.90;6.10;;;17.10;99.90;;;;;;5031015;28;20351;-83
2023/10/10 15:01:47;;;;;;;9.60;7.20;;;17.10;99.90;;;;;;5032761;28;20636;-84
2023/10/10 15:04:17;;;;;;;7.13;6.20;;;17.10;99.90;;;;;;5033871;28;20466;-83
2023/10/10 15:06:43;;;;;;;7.15;5.90;;;17.10;99.90;;;;;;5031018;28;20009;-84
2023/10/10 15:09:19;;;;;;;9.32;7.20;;;17.10;99.90;;;;;;5032639;28;20021;-84
2023/10/10 15:11:46;;;;;;;9.55;7.05;;;17.10;99.90;;;;;;5032186;28;20010;-84
2023/10/10 15:14:12;;;;;;;10.07;7.05;;;17.00;99.90;;;;;;5033733;28;20168;-84
2023/10/10 15:16:39;;;;;;;8.15;7.30;;;17.00;99.90;;;;;;5034504;28;20017;-83
2023/10/10 15:19:06;;;;;;;14.85;8.00;;;17.00;99.90;;;;;;5048352;28;20024;-83
2023/10/10 15:21:35;;;;;;;11.70;8.32;;;17.00;99.90;;;;;;5032517;28;20037;-83
2023/10/10 15:24:03;;;;;;;10.70;8.77;;;16.90;99.90;;;;;;5032309;28;20025;-84